sensor_id;sensor_type;location;lat;lon;timestamp;P1;durP1;ratioP1;P2;durP2;ratioP2
61681;SDS011;47577;43.610;25.010;2022-08-16T00:02:05;8.45;;;6.70;;
61681;SDS011;47577;43.610;25.010;2022-08-16T00:04:31;8.80;;;6.55;;
61681;SDS011;47577;43.610;25.010;2022-08-16T00:06:57;8.52;;;6.28;;
61681;SDS011;47577;43.610;25.010;2022-08-16T00:09:23;7.97;;;5.75;;
61681;SDS011;47577;43.610;25.010;2022-08-16T00:11:50;9.30;;;6.40;;
61681;SDS011;47577;43.610;25.010;2022-08-16T00:14:18;7.13;;;6.10;;
61681;SDS011;47577;43.610;25.010;2022-08-16T00:16:47;6.68;;;5.90;;
61681;SDS011;47577;43.610;25.010;2022-08-16T00:19:15;7.13;;;6.43;;
61681;SDS011;47577;43.610;25.010;2022-08-16T00:21:42;7.63;;;6.38;;
61681;SDS011;47577;43.610;25.010;2022-08-16T00:24:08;8.05;;;6.90;;
61681;SDS011;47577;43.610;25.010;2022-08-16T00:26:35;7.90;;;6.15;;
61681;SDS011;47577;43.610;25.010;2022-08-16T00:29:01;8.55;;;6.63;;
61681;SDS011;47577;43.610;25.010;2022-08-16T00:31:28;8.27;;;6.60;;
61681;SDS011;47577;43.610;25.010;2022-08-16T00:33:56;9.65;;;6.90;;
61681;SDS011;47577;43.610;25.010;2022-08-16T00:36:21;9.95;;;7.35;;
61681;SDS011;47577;43.610;25.010;2022-08-16T00:38:47;8.82;;;6.82;;
61681;SDS011;47577;43.610;25.010;2022-08-16T00:41:12;8.38;;;6.70;;
61681;SDS011;47577;43.610;25.010;2022-08-16T00:43:39;11.10;;;7.53;;
61681;SDS011;47577;43.610;25.010;2022-08-16T00:48:49;8.90;;;7.28;;
61681;SDS011;47577;43.610;25.010;2022-08-16T00:51:16;8.20;;;7.23;;
61681;SDS011;47577;43.610;25.010;2022-08-16T00:53:44;9.60;;;6.60;;
61681;SDS011;47577;43.610;25.010;2022-08-16T00:56:11;10.25;;;7.50;;
61681;SDS011;47577;43.610;25.010;2022-08-16T00:58:41;7.75;;;7.03;;
61681;SDS011;47577;43.610;25.010;2022-08-16T01:01:12;8.77;;;7.18;;
61681;SDS011;47577;43.610;25.010;2022-08-16T01:03:39;8.07;;;7.28;;
61681;SDS011;47577;43.610;25.010;2022-08-16T01:06:07;9.05;;;7.25;;
61681;SDS011;47577;43.610;25.010;2022-08-16T01:08:34;10.25;;;6.68;;
61681;SDS011;47577;43.610;25.010;2022-08-16T01:11:01;7.65;;;6.88;;
61681;SDS011;47577;43.610;25.010;2022-08-16T01:15:56;9.43;;;7.57;;
61681;SDS011;47577;43.610;25.010;2022-08-16T01:18:27;11.25;;;7.35;;
61681;SDS011;47577;43.610;25.010;2022-08-16T01:21:33;8.40;;;6.72;;
61681;SDS011;47577;43.610;25.010;2022-08-16T01:26:44;9.27;;;7.80;;
61681;SDS011;47577;43.610;25.010;2022-08-16T01:29:14;9.40;;;6.70;;
61681;SDS011;47577;43.610;25.010;2022-08-16T01:31:45;8.15;;;7.35;;
61681;SDS011;47577;43.610;25.010;2022-08-16T01:34:12;8.88;;;6.88;;
61681;SDS011;47577;43.610;25.010;2022-08-16T01:39:14;6.97;;;6.28;;
61681;SDS011;47577;43.610;25.010;2022-08-16T01:41:42;8.80;;;7.15;;
61681;SDS011;47577;43.610;25.010;2022-08-16T01:44:08;8.77;;;7.35;;
61681;SDS011;47577;43.610;25.010;2022-08-16T01:46:45;9.98;;;7.72;;
61681;SDS011;47577;43.610;25.010;2022-08-16T01:49:18;8.57;;;7.63;;
61681;SDS011;47577;43.610;25.010;2022-08-16T01:51:50;8.88;;;7.47;;
61681;SDS011;47577;43.610;25.010;2022-08-16T01:54:19;8.32;;;6.75;;
61681;SDS011;47577;43.610;25.010;2022-08-16T01:56:45;8.07;;;7.28;;
61681;SDS011;47577;43.610;25.010;2022-08-16T01:59:11;11.20;;;7.70;;
61681;SDS011;47577;43.610;25.010;2022-08-16T02:01:38;8.90;;;7.50;;
61681;SDS011;47577;43.610;25.010;2022-08-16T02:04:04;8.80;;;7.32;;
61681;SDS011;47577;43.610;25.010;2022-08-16T02:06:30;9.73;;;7.60;;
61681;SDS011;47577;43.610;25.010;2022-08-16T02:08:56;10.32;;;8.23;;
61681;SDS011;47577;43.610;25.010;2022-08-16T02:11:22;8.40;;;7.60;;
61681;SDS011;47577;43.610;25.010;2022-08-16T02:13:48;13.30;;;8.77;;
61681;SDS011;47577;43.610;25.010;2022-08-16T02:16:15;8.40;;;7.53;;
61681;SDS011;47577;43.610;25.010;2022-08-16T02:18:41;8.57;;;7.68;;
61681;SDS011;47577;43.610;25.010;2022-08-16T02:21:07;9.15;;;8.25;;
61681;SDS011;47577;43.610;25.010;2022-08-16T02:23:35;8.85;;;7.50;;
61681;SDS011;47577;43.610;25.010;2022-08-16T02:26:02;9.18;;;7.38;;
61681;SDS011;47577;43.610;25.010;2022-08-16T02:28:29;11.13;;;7.57;;
61681;SDS011;47577;43.610;25.010;2022-08-16T02:30:56;8.82;;;7.93;;
61681;SDS011;47577;43.610;25.010;2022-08-16T02:33:24;10.23;;;7.88;;
61681;SDS011;47577;43.610;25.010;2022-08-16T02:38:16;10.30;;;8.05;;
61681;SDS011;47577;43.610;25.010;2022-08-16T02:40:42;10.57;;;8.02;;
61681;SDS011;47577;43.610;25.010;2022-08-16T02:43:07;9.13;;;7.72;;
61681;SDS011;47577;43.610;25.010;2022-08-16T02:45:33;8.93;;;7.88;;
61681;SDS011;47577;43.610;25.010;2022-08-16T02:47:59;9.07;;;7.45;;
61681;SDS011;47577;43.610;25.010;2022-08-16T02:50:27;9.77;;;7.22;;
61681;SDS011;47577;43.610;25.010;2022-08-16T02:52:53;8.32;;;7.53;;
61681;SDS011;47577;43.610;25.010;2022-08-16T02:55:19;9.23;;;7.53;;
61681;SDS011;47577;43.610;25.010;2022-08-16T02:57:46;9.18;;;8.27;;
61681;SDS011;47577;43.610;25.010;2022-08-16T03:00:12;9.02;;;8.10;;
61681;SDS011;47577;43.610;25.010;2022-08-16T03:05:06;8.68;;;7.78;;
61681;SDS011;47577;43.610;25.010;2022-08-16T03:07:34;8.80;;;7.90;;
61681;SDS011;47577;43.610;25.010;2022-08-16T03:10:00;10.83;;;8.73;;
61681;SDS011;47577;43.610;25.010;2022-08-16T03:12:26;9.00;;;7.80;;
61681;SDS011;47577;43.610;25.010;2022-08-16T03:14:52;10.13;;;8.10;;
61681;SDS011;47577;43.610;25.010;2022-08-16T03:17:17;9.88;;;7.97;;
61681;SDS011;47577;43.610;25.010;2022-08-16T03:19:43;8.68;;;7.78;;
61681;SDS011;47577;43.610;25.010;2022-08-16T03:22:08;10.73;;;8.60;;
61681;SDS011;47577;43.610;25.010;2022-08-16T03:24:34;9.75;;;7.80;;
61681;SDS011;47577;43.610;25.010;2022-08-16T03:27:01;8.77;;;7.93;;
61681;SDS011;47577;43.610;25.010;2022-08-16T03:29:28;8.73;;;7.72;;
61681;SDS011;47577;43.610;25.010;2022-08-16T03:31:56;8.80;;;7.90;;
61681;SDS011;47577;43.610;25.010;2022-08-16T03:34:23;11.45;;;7.75;;
61681;SDS011;47577;43.610;25.010;2022-08-16T03:36:49;9.20;;;8.18;;
61681;SDS011;47577;43.610;25.010;2022-08-16T03:39:14;7.97;;;7.10;;
61681;SDS011;47577;43.610;25.010;2022-08-16T03:41:40;8.90;;;7.80;;
61681;SDS011;47577;43.610;25.010;2022-08-16T03:44:06;10.32;;;8.15;;
61681;SDS011;47577;43.610;25.010;2022-08-16T03:46:33;10.25;;;8.13;;
61681;SDS011;47577;43.610;25.010;2022-08-16T03:48:59;13.45;;;8.48;;
61681;SDS011;47577;43.610;25.010;2022-08-16T03:51:25;9.55;;;7.95;;
61681;SDS011;47577;43.610;25.010;2022-08-16T03:53:51;8.90;;;7.93;;
61681;SDS011;47577;43.610;25.010;2022-08-16T03:56:17;10.85;;;8.10;;
61681;SDS011;47577;43.610;25.010;2022-08-16T03:58:44;7.90;;;7.10;;
61681;SDS011;47577;43.610;25.010;2022-08-16T04:01:10;8.95;;;7.72;;
61681;SDS011;47577;43.610;25.010;2022-08-16T04:03:35;8.82;;;7.30;;
61681;SDS011;47577;43.610;25.010;2022-08-16T04:06:01;9.35;;;8.07;;
61681;SDS011;47577;43.610;25.010;2022-08-16T04:08:28;11.55;;;8.00;;
61681;SDS011;47577;43.610;25.010;2022-08-16T04:10:55;8.55;;;6.97;;
61681;SDS011;47577;43.610;25.010;2022-08-16T04:13:21;8.68;;;7.22;;
61681;SDS011;47577;43.610;25.010;2022-08-16T04:31:10;10.43;;;9.32;;
61681;SDS011;47577;43.610;25.010;2022-08-16T04:33:35;9.52;;;8.23;;
61681;SDS011;47577;43.610;25.010;2022-08-16T04:36:01;9.60;;;7.63;;
61681;SDS011;47577;43.610;25.010;2022-08-16T04:38:27;9.48;;;7.55;;
61681;SDS011;47577;43.610;25.010;2022-08-16T04:40:53;8.95;;;7.32;;
61681;SDS011;47577;43.610;25.010;2022-08-16T04:43:18;9.25;;;7.55;;
61681;SDS011;47577;43.610;25.010;2022-08-16T04:45:44;9.43;;;7.18;;
61681;SDS011;47577;43.610;25.010;2022-08-16T04:48:11;9.63;;;7.93;;
61681;SDS011;47577;43.610;25.010;2022-08-16T04:50:37;8.02;;;7.07;;
61681;SDS011;47577;43.610;25.010;2022-08-16T04:53:02;8.65;;;7.78;;
61681;SDS011;47577;43.610;25.010;2022-08-16T04:55:29;8.45;;;7.25;;
61681;SDS011;47577;43.610;25.010;2022-08-16T04:57:56;7.93;;;7.03;;
61681;SDS011;47577;43.610;25.010;2022-08-16T05:00:23;8.63;;;7.20;;
61681;SDS011;47577;43.610;25.010;2022-08-16T05:02:52;9.02;;;7.38;;
61681;SDS011;47577;43.610;25.010;2022-08-16T05:05:19;10.43;;;7.75;;
61681;SDS011;47577;43.610;25.010;2022-08-16T05:07:46;8.43;;;7.05;;
61681;SDS011;47577;43.610;25.010;2022-08-16T05:10:13;9.27;;;7.15;;
61681;SDS011;47577;43.610;25.010;2022-08-16T05:12:40;8.60;;;7.07;;
61681;SDS011;47577;43.610;25.010;2022-08-16T05:15:06;7.55;;;6.85;;
61681;SDS011;47577;43.610;25.010;2022-08-16T05:17:33;8.25;;;6.85;;
61681;SDS011;47577;43.610;25.010;2022-08-16T05:19:59;10.38;;;6.82;;
61681;SDS011;47577;43.610;25.010;2022-08-16T05:22:25;7.47;;;6.28;;
61681;SDS011;47577;43.610;25.010;2022-08-16T05:24:51;17.27;;;7.83;;
61681;SDS011;47577;43.610;25.010;2022-08-16T05:27:17;6.93;;;6.13;;
61681;SDS011;47577;43.610;25.010;2022-08-16T05:29:44;7.53;;;6.82;;
61681;SDS011;47577;43.610;25.010;2022-08-16T05:32:09;9.05;;;7.03;;
61681;SDS011;47577;43.610;25.010;2022-08-16T05:34:35;8.32;;;6.43;;
61681;SDS011;47577;43.610;25.010;2022-08-16T05:37:01;8.52;;;6.97;;
61681;SDS011;47577;43.610;25.010;2022-08-16T05:39:26;7.80;;;7.00;;
61681;SDS011;47577;43.610;25.010;2022-08-16T05:41:53;7.53;;;6.07;;
61681;SDS011;47577;43.610;25.010;2022-08-16T05:44:20;8.98;;;6.93;;
61681;SDS011;47577;43.610;25.010;2022-08-16T05:46:48;9.75;;;6.80;;
61681;SDS011;47577;43.610;25.010;2022-08-16T05:49:18;7.10;;;6.40;;
61681;SDS011;47577;43.610;25.010;2022-08-16T05:51:44;7.07;;;6.38;;
61681;SDS011;47577;43.610;25.010;2022-08-16T05:56:39;8.73;;;6.53;;
61681;SDS011;47577;43.610;25.010;2022-08-16T05:59:05;8.02;;;6.95;;
61681;SDS011;47577;43.610;25.010;2022-08-16T06:01:31;8.38;;;6.85;;
61681;SDS011;47577;43.610;25.010;2022-08-16T06:03:57;8.63;;;7.18;;
61681;SDS011;47577;43.610;25.010;2022-08-16T06:06:22;8.30;;;6.35;;
61681;SDS011;47577;43.610;25.010;2022-08-16T06:08:48;10.93;;;7.22;;
61681;SDS011;47577;43.610;25.010;2022-08-16T06:11:13;7.55;;;6.85;;
61681;SDS011;47577;43.610;25.010;2022-08-16T06:13:39;8.02;;;6.30;;
61681;SDS011;47577;43.610;25.010;2022-08-16T06:16:06;7.38;;;6.60;;
61681;SDS011;47577;43.610;25.010;2022-08-16T06:18:32;7.30;;;6.38;;
61681;SDS011;47577;43.610;25.010;2022-08-16T06:20:58;7.50;;;6.55;;
61681;SDS011;47577;43.610;25.010;2022-08-16T06:23:24;8.05;;;5.95;;
61681;SDS011;47577;43.610;25.010;2022-08-16T06:25:50;7.28;;;6.47;;
61681;SDS011;47577;43.610;25.010;2022-08-16T06:28:17;6.93;;;5.78;;
61681;SDS011;47577;43.610;25.010;2022-08-16T06:30:44;7.28;;;6.18;;
61681;SDS011;47577;43.610;25.010;2022-08-16T06:33:11;6.55;;;5.95;;
61681;SDS011;47577;43.610;25.010;2022-08-16T06:35:38;8.70;;;5.93;;
61681;SDS011;47577;43.610;25.010;2022-08-16T06:38:04;6.10;;;5.50;;
61681;SDS011;47577;43.610;25.010;2022-08-16T06:40:30;7.38;;;5.55;;
61681;SDS011;47577;43.610;25.010;2022-08-16T06:42:55;5.95;;;5.35;;
61681;SDS011;47577;43.610;25.010;2022-08-16T06:45:21;6.45;;;5.25;;
61681;SDS011;47577;43.610;25.010;2022-08-16T06:47:47;5.75;;;5.15;;
61681;SDS011;47577;43.610;25.010;2022-08-16T06:50:13;6.00;;;5.40;;
61681;SDS011;47577;43.610;25.010;2022-08-16T06:52:39;5.75;;;5.22;;
61681;SDS011;47577;43.610;25.010;2022-08-16T06:55:06;5.75;;;5.22;;
61681;SDS011;47577;43.610;25.010;2022-08-16T06:57:33;7.00;;;5.97;;
61681;SDS011;47577;43.610;25.010;2022-08-16T06:59:59;6.28;;;5.55;;
61681;SDS011;47577;43.610;25.010;2022-08-16T07:02:24;6.20;;;5.60;;
61681;SDS011;47577;43.610;25.010;2022-08-16T07:04:50;8.27;;;5.43;;
61681;SDS011;47577;43.610;25.010;2022-08-16T07:07:17;8.65;;;5.43;;
61681;SDS011;47577;43.610;25.010;2022-08-16T07:09:44;8.02;;;6.10;;
61681;SDS011;47577;43.610;25.010;2022-08-16T07:12:12;6.45;;;5.82;;
61681;SDS011;47577;43.610;25.010;2022-08-16T07:14:38;6.30;;;5.70;;
61681;SDS011;47577;43.610;25.010;2022-08-16T07:17:04;6.23;;;5.63;;
61681;SDS011;47577;43.610;25.010;2022-08-16T07:19:31;8.35;;;5.90;;
61681;SDS011;47577;43.610;25.010;2022-08-16T07:21:57;6.45;;;5.82;;
61681;SDS011;47577;43.610;25.010;2022-08-16T07:24:26;7.50;;;5.63;;
61681;SDS011;47577;43.610;25.010;2022-08-16T07:26:53;8.40;;;5.57;;
61681;SDS011;47577;43.610;25.010;2022-08-16T07:29:19;7.90;;;5.27;;
61681;SDS011;47577;43.610;25.010;2022-08-16T07:31:45;6.63;;;5.90;;
61681;SDS011;47577;43.610;25.010;2022-08-16T07:34:11;8.55;;;5.13;;
61681;SDS011;47577;43.610;25.010;2022-08-16T07:36:36;8.33;;;4.97;;
61681;SDS011;47577;43.610;25.010;2022-08-16T07:39:02;6.23;;;5.53;;
61681;SDS011;47577;43.610;25.010;2022-08-16T07:41:28;8.80;;;4.90;;
61681;SDS011;47577;43.610;25.010;2022-08-16T07:43:53;5.80;;;5.00;;
61681;SDS011;47577;43.610;25.010;2022-08-16T07:46:19;7.70;;;5.47;;
61681;SDS011;47577;43.610;25.010;2022-08-16T07:48:45;7.72;;;5.32;;
61681;SDS011;47577;43.610;25.010;2022-08-16T07:51:10;6.30;;;5.70;;
61681;SDS011;47577;43.610;25.010;2022-08-16T07:53:36;6.77;;;5.33;;
61681;SDS011;47577;43.610;25.010;2022-08-16T07:56:02;7.85;;;6.97;;
61681;SDS011;47577;43.610;25.010;2022-08-16T07:58:28;7.43;;;5.90;;
61681;SDS011;47577;43.610;25.010;2022-08-16T08:00:54;7.18;;;5.50;;
61681;SDS011;47577;43.610;25.010;2022-08-16T08:03:20;5.95;;;5.30;;
61681;SDS011;47577;43.610;25.010;2022-08-16T08:05:46;6.43;;;5.35;;
61681;SDS011;47577;43.610;25.010;2022-08-16T08:08:12;6.50;;;5.60;;
61681;SDS011;47577;43.610;25.010;2022-08-16T08:10:38;5.30;;;4.90;;
61681;SDS011;47577;43.610;25.010;2022-08-16T08:13:03;6.27;;;5.33;;
61681;SDS011;47577;43.610;25.010;2022-08-16T08:15:29;5.20;;;4.70;;
61681;SDS011;47577;43.610;25.010;2022-08-16T08:17:55;5.43;;;4.93;;
61681;SDS011;47577;43.610;25.010;2022-08-16T08:20:21;6.27;;;5.07;;
61681;SDS011;47577;43.610;25.010;2022-08-16T08:22:51;8.65;;;5.32;;
61681;SDS011;47577;43.610;25.010;2022-08-16T08:27:45;7.22;;;4.75;;
61681;SDS011;47577;43.610;25.010;2022-08-16T08:30:11;6.60;;;4.68;;
61681;SDS011;47577;43.610;25.010;2022-08-16T08:32:38;6.45;;;5.00;;
61681;SDS011;47577;43.610;25.010;2022-08-16T08:35:04;5.83;;;5.30;;
61681;SDS011;47577;43.610;25.010;2022-08-16T08:37:33;5.25;;;4.65;;
61681;SDS011;47577;43.610;25.010;2022-08-16T08:40:03;6.20;;;4.68;;
61681;SDS011;47577;43.610;25.010;2022-08-16T08:42:31;5.95;;;4.72;;
61681;SDS011;47577;43.610;25.010;2022-08-16T08:44:57;5.97;;;4.57;;
61681;SDS011;47577;43.610;25.010;2022-08-16T08:47:22;5.63;;;4.47;;
61681;SDS011;47577;43.610;25.010;2022-08-16T08:49:48;6.17;;;4.97;;
61681;SDS011;47577;43.610;25.010;2022-08-16T08:52:13;5.07;;;4.57;;
61681;SDS011;47577;43.610;25.010;2022-08-16T08:54:39;5.27;;;4.77;;
61681;SDS011;47577;43.610;25.010;2022-08-16T08:57:05;5.75;;;5.25;;
61681;SDS011;47577;43.610;25.010;2022-08-16T08:59:32;5.30;;;4.80;;
61681;SDS011;47577;43.610;25.010;2022-08-16T09:01:58;5.97;;;4.78;;
61681;SDS011;47577;43.610;25.010;2022-08-16T09:04:26;5.47;;;4.80;;
61681;SDS011;47577;43.610;25.010;2022-08-16T09:06:53;5.68;;;5.00;;
61681;SDS011;47577;43.610;25.010;2022-08-16T09:14:11;6.00;;;5.17;;
61681;SDS011;47577;43.610;25.010;2022-08-16T09:16:37;7.43;;;4.80;;
61681;SDS011;47577;43.610;25.010;2022-08-16T09:19:03;6.37;;;4.70;;
61681;SDS011;47577;43.610;25.010;2022-08-16T09:21:29;6.40;;;4.80;;
61681;SDS011;47577;43.610;25.010;2022-08-16T09:23:54;6.37;;;4.90;;
61681;SDS011;47577;43.610;25.010;2022-08-16T09:26:20;5.50;;;4.80;;
61681;SDS011;47577;43.610;25.010;2022-08-16T09:28:46;4.70;;;4.20;;
61681;SDS011;47577;43.610;25.010;2022-08-16T09:31:13;5.28;;;4.78;;
61681;SDS011;47577;43.610;25.010;2022-08-16T09:33:40;5.03;;;4.53;;
61681;SDS011;47577;43.610;25.010;2022-08-16T09:36:07;5.30;;;4.80;;
61681;SDS011;47577;43.610;25.010;2022-08-16T09:38:34;5.75;;;4.30;;
61681;SDS011;47577;43.610;25.010;2022-08-16T09:43:27;6.18;;;5.55;;
61681;SDS011;47577;43.610;25.010;2022-08-16T09:45:53;5.15;;;4.65;;
61681;SDS011;47577;43.610;25.010;2022-08-16T09:48:18;6.00;;;5.07;;
61681;SDS011;47577;43.610;25.010;2022-08-16T09:50:44;5.97;;;4.77;;
61681;SDS011;47577;43.610;25.010;2022-08-16T09:53:15;6.00;;;4.93;;
61681;SDS011;47577;43.610;25.010;2022-08-16T09:55:44;4.80;;;4.30;;
61681;SDS011;47577;43.610;25.010;2022-08-16T09:58:13;5.18;;;4.72;;
61681;SDS011;47577;43.610;25.010;2022-08-16T10:00:38;6.03;;;5.13;;
61681;SDS011;47577;43.610;25.010;2022-08-16T10:03:04;5.13;;;4.30;;
61681;SDS011;47577;43.610;25.010;2022-08-16T10:05:30;6.13;;;4.20;;
61681;SDS011;47577;43.610;25.010;2022-08-16T10:07:57;6.65;;;5.28;;
61681;SDS011;47577;43.610;25.010;2022-08-16T10:10:23;6.50;;;5.60;;
61681;SDS011;47577;43.610;25.010;2022-08-16T10:12:50;4.63;;;4.07;;
61681;SDS011;47577;43.610;25.010;2022-08-16T10:15:34;5.68;;;4.10;;
61681;SDS011;47577;43.610;25.010;2022-08-16T10:20:28;4.20;;;3.83;;
61681;SDS011;47577;43.610;25.010;2022-08-16T10:22:55;5.32;;;3.80;;
61681;SDS011;47577;43.610;25.010;2022-08-16T10:25:21;4.80;;;3.53;;
61681;SDS011;47577;43.610;25.010;2022-08-16T10:27:47;4.83;;;4.33;;
61681;SDS011;47577;43.610;25.010;2022-08-16T10:30:14;5.07;;;4.30;;
61681;SDS011;47577;43.610;25.010;2022-08-16T10:32:40;7.03;;;4.13;;
61681;SDS011;47577;43.610;25.010;2022-08-16T10:35:06;6.67;;;4.53;;
61681;SDS011;47577;43.610;25.010;2022-08-16T10:39:58;8.65;;;4.18;;
61681;SDS011;47577;43.610;25.010;2022-08-16T10:42:26;7.72;;;4.32;;
61681;SDS011;47577;43.610;25.010;2022-08-16T10:44:52;5.63;;;4.85;;
61681;SDS011;47577;43.610;25.010;2022-08-16T10:47:17;6.13;;;3.85;;
61681;SDS011;47577;43.610;25.010;2022-08-16T10:49:43;4.33;;;3.90;;
61681;SDS011;47577;43.610;25.010;2022-08-16T10:52:08;4.30;;;3.90;;
61681;SDS011;47577;43.610;25.010;2022-08-16T10:54:34;5.10;;;4.60;;
61681;SDS011;47577;43.610;25.010;2022-08-16T10:57:01;4.20;;;3.80;;
61681;SDS011;47577;43.610;25.010;2022-08-16T10:59:28;4.80;;;3.83;;
61681;SDS011;47577;43.610;25.010;2022-08-16T11:01:56;3.80;;;3.08;;
61681;SDS011;47577;43.610;25.010;2022-08-16T11:04:22;5.25;;;3.83;;
61681;SDS011;47577;43.610;25.010;2022-08-16T11:06:47;5.93;;;4.32;;
61681;SDS011;47577;43.610;25.010;2022-08-16T11:09:13;5.07;;;4.53;;
61681;SDS011;47577;43.610;25.010;2022-08-16T11:11:39;4.50;;;4.03;;
61681;SDS011;47577;43.610;25.010;2022-08-16T11:14:04;4.50;;;3.80;;
61681;SDS011;47577;43.610;25.010;2022-08-16T11:18:57;3.90;;;3.60;;
61681;SDS011;47577;43.610;25.010;2022-08-16T11:21:23;6.88;;;4.00;;
61681;SDS011;47577;43.610;25.010;2022-08-16T11:23:50;4.13;;;3.72;;
61681;SDS011;47577;43.610;25.010;2022-08-16T11:26:20;5.30;;;3.45;;
61681;SDS011;47577;43.610;25.010;2022-08-16T11:28:46;3.80;;;3.38;;
61681;SDS011;47577;43.610;25.010;2022-08-16T11:31:15;5.25;;;3.28;;
61681;SDS011;47577;43.610;25.010;2022-08-16T11:33:41;4.25;;;3.67;;
61681;SDS011;47577;43.610;25.010;2022-08-16T11:36:07;4.07;;;3.67;;
61681;SDS011;47577;43.610;25.010;2022-08-16T11:38:33;4.35;;;3.58;;
61681;SDS011;47577;43.610;25.010;2022-08-16T11:40:59;6.70;;;4.20;;
61681;SDS011;47577;43.610;25.010;2022-08-16T11:43:27;5.22;;;3.92;;
61681;SDS011;47577;43.610;25.010;2022-08-16T11:45:55;4.80;;;4.35;;
61681;SDS011;47577;43.610;25.010;2022-08-16T11:48:26;6.28;;;4.63;;
61681;SDS011;47577;43.610;25.010;2022-08-16T11:50:54;4.20;;;3.80;;
61681;SDS011;47577;43.610;25.010;2022-08-16T11:53:21;5.43;;;4.20;;
61681;SDS011;47577;43.610;25.010;2022-08-16T11:55:48;4.72;;;3.80;;
61681;SDS011;47577;43.610;25.010;2022-08-16T11:58:15;4.80;;;3.85;;
61681;SDS011;47577;43.610;25.010;2022-08-16T12:00:42;4.30;;;3.90;;
61681;SDS011;47577;43.610;25.010;2022-08-16T12:03:09;4.72;;;4.28;;
61681;SDS011;47577;43.610;25.010;2022-08-16T12:05:35;5.47;;;4.55;;
61681;SDS011;47577;43.610;25.010;2022-08-16T12:08:04;4.50;;;4.10;;
61681;SDS011;47577;43.610;25.010;2022-08-16T12:10:31;4.78;;;4.30;;
61681;SDS011;47577;43.610;25.010;2022-08-16T12:12:58;4.93;;;4.53;;
61681;SDS011;47577;43.610;25.010;2022-08-16T12:15:24;4.75;;;4.35;;
61681;SDS011;47577;43.610;25.010;2022-08-16T12:17:52;5.30;;;4.68;;
61681;SDS011;47577;43.610;25.010;2022-08-16T12:20:21;5.00;;;4.55;;
61681;SDS011;47577;43.610;25.010;2022-08-16T12:22:50;4.40;;;3.97;;
61681;SDS011;47577;43.610;25.010;2022-08-16T12:25:20;4.78;;;4.00;;
61681;SDS011;47577;43.610;25.010;2022-08-16T12:27:47;5.47;;;4.10;;
61681;SDS011;47577;43.610;25.010;2022-08-16T12:30:15;4.45;;;4.05;;
61681;SDS011;47577;43.610;25.010;2022-08-16T12:32:43;4.20;;;3.85;;
61681;SDS011;47577;43.610;25.010;2022-08-16T12:35:11;4.80;;;4.40;;
61681;SDS011;47577;43.610;25.010;2022-08-16T12:37:39;6.72;;;4.25;;
61681;SDS011;47577;43.610;25.010;2022-08-16T12:40:06;5.35;;;4.32;;
61681;SDS011;47577;43.610;25.010;2022-08-16T12:42:33;4.57;;;4.18;;
61681;SDS011;47577;43.610;25.010;2022-08-16T12:45:00;4.40;;;3.88;;
61681;SDS011;47577;43.610;25.010;2022-08-16T12:47:30;4.20;;;3.90;;
61681;SDS011;47577;43.610;25.010;2022-08-16T12:50:14;4.00;;;3.70;;
61681;SDS011;47577;43.610;25.010;2022-08-16T12:52:40;4.38;;;3.88;;
61681;SDS011;47577;43.610;25.010;2022-08-16T12:55:06;4.40;;;4.00;;
61681;SDS011;47577;43.610;25.010;2022-08-16T12:57:35;4.50;;;4.07;;
61681;SDS011;47577;43.610;25.010;2022-08-16T13:00:06;4.78;;;4.30;;
61681;SDS011;47577;43.610;25.010;2022-08-16T13:02:37;5.75;;;4.38;;
61681;SDS011;47577;43.610;25.010;2022-08-16T13:05:04;4.68;;;4.28;;
61681;SDS011;47577;43.610;25.010;2022-08-16T13:07:31;4.20;;;3.85;;
61681;SDS011;47577;43.610;25.010;2022-08-16T13:09:57;4.60;;;4.13;;
61681;SDS011;47577;43.610;25.010;2022-08-16T13:12:33;5.35;;;4.85;;
61681;SDS011;47577;43.610;25.010;2022-08-16T13:15:08;4.68;;;3.92;;
61681;SDS011;47577;43.610;25.010;2022-08-16T13:17:36;4.97;;;4.32;;
61681;SDS011;47577;43.610;25.010;2022-08-16T13:20:04;5.53;;;4.38;;
61681;SDS011;47577;43.610;25.010;2022-08-16T13:22:34;5.07;;;4.40;;
61681;SDS011;47577;43.610;25.010;2022-08-16T13:25:05;4.47;;;4.07;;
61681;SDS011;47577;43.610;25.010;2022-08-16T13:27:33;4.53;;;4.13;;
61681;SDS011;47577;43.610;25.010;2022-08-16T13:29:59;4.50;;;4.10;;
61681;SDS011;47577;43.610;25.010;2022-08-16T13:32:24;4.72;;;4.28;;
61681;SDS011;47577;43.610;25.010;2022-08-16T13:34:50;4.20;;;3.70;;
61681;SDS011;47577;43.610;25.010;2022-08-16T13:37:16;5.32;;;4.30;;
61681;SDS011;47577;43.610;25.010;2022-08-16T13:39:41;5.10;;;4.00;;
61681;SDS011;47577;43.610;25.010;2022-08-16T13:42:11;5.95;;;4.10;;
61681;SDS011;47577;43.610;25.010;2022-08-16T13:44:37;4.35;;;3.95;;
61681;SDS011;47577;43.610;25.010;2022-08-16T13:47:04;4.85;;;4.45;;
61681;SDS011;47577;43.610;25.010;2022-08-16T13:49:31;5.20;;;4.53;;
61681;SDS011;47577;43.610;25.010;2022-08-16T13:51:58;4.78;;;3.95;;
61681;SDS011;47577;43.610;25.010;2022-08-16T13:54:24;4.22;;;3.83;;
61681;SDS011;47577;43.610;25.010;2022-08-16T13:56:50;5.10;;;4.03;;
61681;SDS011;47577;43.610;25.010;2022-08-16T13:59:16;4.90;;;4.50;;
61681;SDS011;47577;43.610;25.010;2022-08-16T14:01:43;4.63;;;4.07;;
61681;SDS011;47577;43.610;25.010;2022-08-16T14:04:09;3.80;;;3.50;;
61681;SDS011;47577;43.610;25.010;2022-08-16T14:06:34;3.73;;;3.23;;
61681;SDS011;47577;43.610;25.010;2022-08-16T14:09:00;3.65;;;3.00;;
61681;SDS011;47577;43.610;25.010;2022-08-16T14:11:26;3.25;;;2.92;;
61681;SDS011;47577;43.610;25.010;2022-08-16T14:13:52;4.50;;;3.22;;
61681;SDS011;47577;43.610;25.010;2022-08-16T14:16:17;4.07;;;3.63;;
61681;SDS011;47577;43.610;25.010;2022-08-16T14:18:43;3.65;;;3.25;;
61681;SDS011;47577;43.610;25.010;2022-08-16T14:21:09;2.87;;;2.67;;
61681;SDS011;47577;43.610;25.010;2022-08-16T14:23:34;3.33;;;2.57;;
61681;SDS011;47577;43.610;25.010;2022-08-16T14:26:00;4.80;;;2.97;;
61681;SDS011;47577;43.610;25.010;2022-08-16T14:28:26;5.30;;;3.03;;
61681;SDS011;47577;43.610;25.010;2022-08-16T14:30:52;8.70;;;2.93;;
61681;SDS011;47577;43.610;25.010;2022-08-16T14:33:18;3.35;;;3.05;;
61681;SDS011;47577;43.610;25.010;2022-08-16T14:35:44;3.55;;;3.03;;
61681;SDS011;47577;43.610;25.010;2022-08-16T14:38:10;5.38;;;3.22;;
61681;SDS011;47577;43.610;25.010;2022-08-16T14:40:35;4.78;;;3.00;;
61681;SDS011;47577;43.610;25.010;2022-08-16T14:43:02;2.63;;;2.40;;
61681;SDS011;47577;43.610;25.010;2022-08-16T14:45:28;3.05;;;2.45;;
61681;SDS011;47577;43.610;25.010;2022-08-16T14:47:55;2.90;;;2.30;;
61681;SDS011;47577;43.610;25.010;2022-08-16T14:50:22;3.47;;;2.43;;
61681;SDS011;47577;43.610;25.010;2022-08-16T14:52:53;4.78;;;2.70;;
61681;SDS011;47577;43.610;25.010;2022-08-16T14:55:26;3.20;;;2.80;;
61681;SDS011;47577;43.610;25.010;2022-08-16T14:57:54;4.97;;;2.90;;
61681;SDS011;47577;43.610;25.010;2022-08-16T15:00:20;4.00;;;2.75;;
61681;SDS011;47577;43.610;25.010;2022-08-16T15:02:50;2.65;;;2.40;;
61681;SDS011;47577;43.610;25.010;2022-08-16T15:05:18;4.30;;;2.60;;
61681;SDS011;47577;43.610;25.010;2022-08-16T15:07:44;3.58;;;2.78;;
61681;SDS011;47577;43.610;25.010;2022-08-16T15:10:10;2.93;;;2.70;;
61681;SDS011;47577;43.610;25.010;2022-08-16T15:12:36;3.13;;;2.38;;
61681;SDS011;47577;43.610;25.010;2022-08-16T15:15:04;4.20;;;2.70;;
61681;SDS011;47577;43.610;25.010;2022-08-16T15:17:34;3.38;;;2.60;;
61681;SDS011;47577;43.610;25.010;2022-08-16T15:20:00;5.43;;;2.30;;
61681;SDS011;47577;43.610;25.010;2022-08-16T15:22:29;4.68;;;3.00;;